Time;durP1;ratioP1;P1;durP2;ratioP2;P2;SDS_P1;SDS_P2;PMS_P1;PMS_P2;Temp;Humidity;BMP_temperature;BMP_pressure;BME280_temperature;BME280_humidity;BME280_pressure;Samples;Min_cycle;Max_cycle;Signal;HPM_P1;HPM_P2
2022/09/04 00:01:50;;;;;;;2.75;2.45;;;23.40;52.60;;;;;;5071652;28;20175;-67
2022/09/04 00:04:37;;;;;;;3.00;2.70;;;23.40;52.70;;;;;;5072101;28;20189;-67
2022/09/04 00:07:27;;;;;;;3.75;2.67;;;23.40;52.70;;;;;;5056649;28;20221;-66
2022/09/04 00:10:20;;;;;;;3.40;2.67;;;23.40;52.70;;;;;;5053477;28;20241;-66
2022/09/04 00:12:52;;;;;;;3.88;3.10;;;23.40;52.70;;;;;;5054240;28;20175;-67
2022/09/04 00:15:40;;;;;;;3.10;2.63;;;23.40;52.80;;;;;;5054567;28;20178;-67
2022/09/04 00:18:15;;;;;;;3.00;2.55;;;23.40;52.80;;;;;;5053562;28;20220;-67
2022/09/04 00:21:17;;;;;;;2.80;2.60;;;23.40;52.80;;;;;;5054281;28;20256;-67
2022/09/04 00:23:50;;;;;;;3.05;2.78;;;23.40;52.90;;;;;;5055013;28;20228;-67
2022/09/04 00:26:35;;;;;;;3.30;2.75;;;23.30;52.80;;;;;;5072412;28;20174;-67
2022/09/04 00:29:05;;;;;;;2.75;2.55;;;23.40;52.90;;;;;;5071910;28;20253;-67
2022/09/04 00:31:38;;;;;;;2.95;2.65;;;23.30;52.80;;;;;;5053435;28;20183;-67
2022/09/04 00:34:36;;;;;;;2.67;2.47;;;23.40;52.90;;;;;;5054238;28;20186;-66
2022/09/04 00:37:05;;;;;;;2.97;2.70;;;23.30;52.90;;;;;;5075419;28;20216;-67
2022/09/04 00:39:42;;;;;;;3.20;2.97;;;23.40;52.90;;;;;;5057099;28;20263;-67
2022/09/04 00:42:45;;;;;;;2.67;2.47;;;23.30;52.90;;;;;;5057200;28;20202;-67
2022/09/04 00:45:40;;;;;;;3.25;2.95;;;23.30;52.90;;;;;;5074455;28;20188;-67
2022/09/04 00:48:14;;;;;;;2.72;2.53;;;23.30;53.00;;;;;;5074915;28;20177;-67
2022/09/04 00:51:02;;;;;;;2.75;2.50;;;23.30;52.90;;;;;;5058041;28;20178;-67
2022/09/04 00:53:44;;;;;;;2.80;2.60;;;23.30;53.00;;;;;;5056723;28;20186;-67
2022/09/04 00:56:43;;;;;;;3.03;2.80;;;23.30;53.00;;;;;;5057542;28;20690;-67
2022/09/04 00:59:36;;;;;;;2.88;2.67;;;23.30;53.00;;;;;;5074562;28;20175;-67
2022/09/04 01:02:37;;;;;;;2.70;2.50;;;23.30;53.00;;;;;;5074828;28;20209;-67
2022/09/04 01:05:25;;;;;;;2.90;2.70;;;23.30;53.00;;;;;;5074921;28;20181;-66
2022/09/04 01:08:15;;;;;;;2.78;2.58;;;23.30;53.00;;;;;;5058923;28;20174;-66
2022/09/04 01:10:58;;;;;;;2.83;2.58;;;23.30;53.00;;;;;;5059898;28;20201;-67
2022/09/04 01:13:32;;;;;;;2.92;2.72;;;23.30;53.00;;;;;;5056592;28;20177;-67
2022/09/04 01:16:04;;;;;;;2.67;2.47;;;23.30;53.00;;;;;;5058029;28;20174;-67
2022/09/04 01:18:34;;;;;;;3.55;2.85;;;23.30;53.00;;;;;;5056886;28;20185;-67
2022/09/04 01:21:09;;;;;;;2.90;2.70;;;23.20;53.10;;;;;;5056221;28;20312;-66
2022/09/04 01:23:55;;;;;;;3.05;2.85;;;23.20;53.10;;;;;;5056439;28;20579;-67
2022/09/04 01:26:31;;;;;;;2.70;2.50;;;23.30;53.10;;;;;;5058830;28;20186;-67
2022/09/04 01:29:34;;;;;;;2.50;2.30;;;23.30;53.10;;;;;;5056000;28;20197;-67
2022/09/04 01:32:20;;;;;;;3.25;3.03;;;23.30;53.10;;;;;;5056610;28;20249;-67
2022/09/04 01:35:11;;;;;;;2.83;2.50;;;23.30;53.10;;;;;;5058753;28;20253;-66
2022/09/04 01:37:42;;;;;;;3.10;2.85;;;23.20;53.10;;;;;;5056854;28;20175;-66
2022/09/04 01:40:29;;;;;;;2.80;2.60;;;23.20;53.10;;;;;;5057052;28;20174;-67
2022/09/04 01:43:06;;;;;;;3.22;3.03;;;23.20;53.20;;;;;;5073495;28;20214;-66
2022/09/04 01:45:45;;;;;;;2.80;2.60;;;23.20;53.20;;;;;;5057815;28;20227;-67
2022/09/04 01:48:12;;;;;;;3.08;2.88;;;23.20;53.10;;;;;;5055231;28;20183;-67
2022/09/04 01:50:38;;;;;;;2.58;2.47;;;23.20;53.20;;;;;;5056379;28;20192;-67
2022/09/04 01:53:11;;;;;;;2.85;2.58;;;23.20;53.10;;;;;;5056220;28;20179;-66
2022/09/04 01:56:01;;;;;;;2.90;2.60;;;23.20;53.20;;;;;;5073599;28;20189;-67
2022/09/04 01:58:30;;;;;;;2.58;2.40;;;23.20;53.30;;;;;;5059367;28;20185;-66
2022/09/04 02:01:14;;;;;;;3.38;2.72;;;23.20;53.20;;;;;;5073897;28;20227;-67
2022/09/04 02:03:45;;;;;;;2.90;2.70;;;23.20;53.30;;;;;;5072697;28;20301;-67
2022/09/04 02:06:53;;;;;;;3.13;2.92;;;23.20;53.20;;;;;;5074003;28;20674;-66
2022/09/04 02:09:33;;;;;;;3.25;2.95;;;23.20;53.30;;;;;;5024758;28;20182;-65
2022/09/04 02:12:05;;;;;;;3.00;2.72;;;23.20;53.30;;;;;;5073686;28;20582;-66
2022/09/04 02:14:39;;;;;;;2.65;2.45;;;23.20;53.30;;;;;;5055893;28;20185;-67
2022/09/04 02:17:39;;;;;;;2.80;2.60;;;23.20;53.30;;;;;;5055170;28;20178;-67
2022/09/04 02:20:29;;;;;;;2.78;2.58;;;23.20;53.30;;;;;;5057537;28;20236;-67
2022/09/04 02:23:11;;;;;;;3.45;2.75;;;23.20;53.30;;;;;;5072810;28;20221;-66
2022/09/04 02:25:57;;;;;;;2.83;2.58;;;23.20;53.30;;;;;;5073593;28;20718;-66
2022/09/04 02:28:53;;;;;;;2.83;2.63;;;23.20;53.30;;;;;;5055793;28;20181;-66
2022/09/04 02:32:02;;;;;;;2.80;2.60;;;23.20;53.40;;;;;;5072971;28;20284;-67
2022/09/04 02:34:38;;;;;;;3.25;2.95;;;23.20;53.30;;;;;;5056980;28;20182;-66
2022/09/04 02:37:12;;;;;;;2.88;2.60;;;23.20;53.30;;;;;;5072606;28;20214;-67
2022/09/04 02:39:47;;;;;;;3.17;2.80;;;23.10;53.30;;;;;;5073363;28;20268;-67
2022/09/04 02:42:38;;;;;;;2.78;2.58;;;23.20;53.40;;;;;;5055477;28;20202;-66
2022/09/04 02:45:19;;;;;;;2.58;2.38;;;23.10;53.30;;;;;;5072579;28;20183;-67
2022/09/04 02:47:54;;;;;;;3.10;2.88;;;23.10;53.40;;;;;;5054919;28;20186;-67
2022/09/04 02:50:48;;;;;;;2.90;2.70;;;23.10;53.40;;;;;;5073413;28;20173;-67
2022/09/04 02:53:29;;;;;;;2.70;2.50;;;23.10;53.40;;;;;;5072450;28;20175;-67
2022/09/04 02:56:26;;;;;;;2.90;2.70;;;23.10;53.40;;;;;;5054853;28;20233;-67
2022/09/04 02:59:07;;;;;;;2.90;2.70;;;23.10;53.40;;;;;;5053510;28;20170;-66
2022/09/04 03:01:39;;;;;;;2.95;2.75;;;23.10;53.40;;;;;;5056830;28;20193;-67
2022/09/04 03:04:23;;;;;;;2.90;2.70;;;23.10;53.50;;;;;;5055047;28;20221;-66
2022/09/04 03:06:53;;;;;;;2.92;2.60;;;23.10;53.50;;;;;;5072159;28;20545;-66
2022/09/04 03:09:43;;;;;;;2.92;2.72;;;23.10;53.50;;;;;;5054893;28;20181;-66
2022/09/04 03:12:25;;;;;;;2.95;2.75;;;23.10;53.40;;;;;;5072333;28;20175;-67
2022/09/04 03:15:17;;;;;;;3.50;2.85;;;23.10;53.50;;;;;;5055667;28;20212;-67
2022/09/04 03:17:48;;;;;;;2.90;2.70;;;23.10;53.50;;;;;;5057350;28;20190;-66
2022/09/04 03:20:13;;;;;;;2.97;2.78;;;23.10;53.50;;;;;;5072090;28;20178;-67
2022/09/04 03:22:50;;;;;;;3.00;2.80;;;23.10;53.50;;;;;;5072827;28;20206;-67
2022/09/04 03:25:55;;;;;;;3.13;2.83;;;23.10;53.60;;;;;;5054876;28;20692;-67
2022/09/04 03:28:41;;;;;;;2.90;2.70;;;23.10;53.60;;;;;;5057322;28;20186;-67
2022/09/04 03:31:28;;;;;;;3.10;2.90;;;23.10;53.50;;;;;;5072389;28;20698;-67
2022/09/04 03:33:57;;;;;;;3.00;2.80;;;23.10;53.50;;;;;;5054128;28;20281;-66
2022/09/04 03:36:31;;;;;;;3.00;2.80;;;23.00;53.50;;;;;;5072573;28;20166;-67
2022/09/04 03:39:04;;;;;;;2.80;2.60;;;23.00;53.50;;;;;;5055123;28;20686;-67
2022/09/04 03:41:39;;;;;;;3.00;2.78;;;23.00;53.50;;;;;;5054276;28;20253;-67
2022/09/04 03:44:30;;;;;;;2.80;2.60;;;23.10;53.60;;;;;;5054570;28;20260;-67
2022/09/04 03:47:33;;;;;;;2.45;2.35;;;23.00;53.50;;;;;;5054443;28;20652;-67
2022/09/04 03:50:16;;;;;;;2.88;2.65;;;23.00;53.50;;;;;;5072258;28;20721;-67
2022/09/04 03:52:49;;;;;;;2.80;2.60;;;23.00;53.60;;;;;;5072543;28;20551;-67
2022/09/04 03:55:36;;;;;;;3.10;2.80;;;23.00;53.60;;;;;;5071963;28;20174;-67
2022/09/04 03:58:04;;;;;;;2.78;2.58;;;23.00;53.50;;;;;;5072182;28;20178;-67
2022/09/04 04:00:40;;;;;;;2.95;2.75;;;23.00;53.60;;;;;;5072251;28;20190;-67
2022/09/04 04:03:42;;;;;;;3.33;2.70;;;23.00;53.60;;;;;;5053731;28;20253;-67
2022/09/04 04:06:17;;;;;;;3.50;2.63;;;23.00;53.60;;;;;;5035451;28;20231;-66
2022/09/04 04:09:03;;;;;;;2.80;2.60;;;23.00;53.70;;;;;;5054287;28;20708;-67
2022/09/04 04:11:37;;;;;;;3.22;2.92;;;23.00;53.60;;;;;;5058671;28;20257;-67
2022/09/04 04:14:28;;;;;;;2.83;2.63;;;23.00;53.70;;;;;;5057787;28;20170;-67
2022/09/04 04:17:04;;;;;;;2.80;2.60;;;23.00;53.70;;;;;;5075257;28;20285;-67
2022/09/04 04:19:55;;;;;;;3.00;2.80;;;23.00;53.60;;;;;;5058328;28;20178;-67
2022/09/04 04:22:32;;;;;;;2.92;2.53;;;23.00;53.70;;;;;;5076008;28;20248;-67
2022/09/04 04:25:39;;;;;;;2.88;2.67;;;23.00;53.70;;;;;;5075529;28;20226;-67
2022/09/04 04:28:22;;;;;;;2.55;2.35;;;23.00;53.70;;;;;;5055060;28;20541;-68
2022/09/04 04:30:53;;;;;;;2.45;2.30;;;23.00;53.70;;;;;;5074944;28;20662;-67
2022/09/04 04:33:33;;;;;;;2.67;2.47;;;23.00;53.70;;;;;;5075800;28;20170;-67
2022/09/04 04:36:19;;;;;;;3.08;2.78;;;23.00;53.70;;;;;;5074890;28;20264;-67
2022/09/04 04:39:03;;;;;;;3.25;2.60;;;23.00;53.70;;;;;;5074539;28;20647;-67
2022/09/04 04:42:02;;;;;;;2.53;2.42;;;23.00;53.70;;;;;;5075478;28;20171;-67
2022/09/04 04:48:22;;;;;;;3.17;2.88;;;22.90;53.70;;;;;;5002489;28;20192;-67
2022/09/04 04:51:25;;;;;;;2.50;2.40;;;22.90;53.70;;;;;;4993247;28;20587;-67
2022/09/04 04:54:16;;;;;;;2.80;2.58;;;23.00;53.70;;;;;;5072550;28;20188;-67
2022/09/04 04:57:16;;;;;;;2.88;2.53;;;22.90;53.70;;;;;;5057232;28;20698;-67
2022/09/04 04:59:54;;;;;;;2.20;2.10;;;22.90;53.70;;;;;;5074270;28;20179;-67
2022/09/04 05:02:24;;;;;;;2.83;2.63;;;23.00;53.80;;;;;;5057336;28;20665;-67
2022/09/04 05:05:12;;;;;;;2.97;2.63;;;23.00;53.80;;;;;;5056468;28;20261;-67
2022/09/04 05:08:05;;;;;;;2.95;2.75;;;22.90;53.70;;;;;;5059830;28;20640;-66
2022/09/04 05:10:44;;;;;;;2.88;2.67;;;22.90;53.80;;;;;;5056855;28;20269;-66
2022/09/04 05:13:34;;;;;;;2.90;2.60;;;22.90;53.80;;;;;;5057268;28;20200;-67
2022/09/04 05:16:06;;;;;;;2.78;2.58;;;22.90;53.80;;;;;;5057045;28;20584;-67
2022/09/04 05:18:48;;;;;;;2.85;2.65;;;22.90;53.80;;;;;;5056828;28;20248;-67
2022/09/04 05:21:17;;;;;;;2.95;2.75;;;22.90;53.80;;;;;;5074097;28;20178;-67
2022/09/04 05:24:15;;;;;;;2.40;2.20;;;22.90;53.80;;;;;;5056849;28;20234;-67
2022/09/04 05:27:29;;;;;;;2.75;2.55;;;22.90;53.80;;;;;;5044523;28;20228;-67
2022/09/04 05:30:17;;;;;;;2.97;2.63;;;22.90;53.80;;;;;;5052016;28;20197;-67
2022/09/04 05:32:50;;;;;;;2.88;2.67;;;22.90;53.80;;;;;;5057939;28;20181;-66
2022/09/04 05:35:17;;;;;;;2.72;2.50;;;22.90;53.80;;;;;;5057057;28;20236;-67
2022/09/04 05:38:13;;;;;;;2.67;2.50;;;22.90;53.80;;;;;;5056696;28;20167;-66
2022/09/04 05:41:05;;;;;;;2.80;2.60;;;22.90;53.80;;;;;;5056010;28;20174;-67
2022/09/04 05:43:58;;;;;;;2.90;2.70;;;22.90;53.80;;;;;;5057874;28;20203;-67
2022/09/04 05:46:37;;;;;;;2.70;2.50;;;22.90;53.80;;;;;;5074305;28;20577;-68
2022/09/04 05:49:18;;;;;;;2.75;2.55;;;22.90;53.90;;;;;;5056313;28;20175;-67
2022/09/04 05:51:48;;;;;;;2.67;2.47;;;22.90;53.80;;;;;;5056382;28;20253;-67
2022/09/04 05:54:26;;;;;;;2.60;2.40;;;22.90;53.90;;;;;;5055494;28;20170;-67
2022/09/04 05:57:10;;;;;;;2.60;2.40;;;22.90;53.90;;;;;;5074246;28;20194;-66
2022/09/04 06:00:00;;;;;;;2.90;2.70;;;22.90;53.90;;;;;;5056194;28;20664;-67
2022/09/04 06:02:47;;;;;;;2.63;2.42;;;22.90;53.80;;;;;;5055523;28;20301;-67
2022/09/04 06:05:35;;;;;;;2.45;2.25;;;22.90;53.90;;;;;;5074242;28;20178;-66
2022/09/04 06:08:15;;;;;;;2.72;2.53;;;22.90;53.80;;;;;;5054918;28;20183;-66
2022/09/04 06:10:55;;;;;;;2.60;2.40;;;22.90;53.90;;;;;;5057557;28;20210;-67
2022/09/04 06:13:44;;;;;;;2.50;2.30;;;22.90;53.90;;;;;;5074095;28;20166;-67
2022/09/04 06:16:30;;;;;;;3.05;2.85;;;22.90;53.90;;;;;;5043161;28;20645;-67
2022/09/04 06:19:14;;;;;;;2.72;2.53;;;22.90;53.90;;;;;;5073850;28;20182;-67
2022/09/04 06:21:49;;;;;;;2.63;2.42;;;22.90;53.90;;;;;;5073905;28;20159;-67
2022/09/04 06:24:36;;;;;;;4.05;2.80;;;22.90;53.80;;;;;;5072266;28;20222;-67
2022/09/04 06:27:12;;;;;;;2.53;2.33;;;22.90;53.90;;;;;;5073631;28;20170;-67
2022/09/04 06:29:57;;;;;;;2.53;2.33;;;22.90;53.80;;;;;;5055041;28;20201;-66
2022/09/04 06:32:39;;;;;;;2.50;2.35;;;22.90;53.80;;;;;;5073493;28;20181;-67
2022/09/04 06:35:30;;;;;;;2.63;2.42;;;22.90;53.80;;;;;;5073375;28;20520;-66
2022/09/04 06:38:06;;;;;;;2.30;2.20;;;22.90;53.80;;;;;;5054715;28;20182;-67
2022/09/04 06:41:15;;;;;;;2.78;2.58;;;23.00;53.80;;;;;;5073406;28;20182;-67
2022/09/04 06:43:51;;;;;;;2.75;2.55;;;23.00;53.80;;;;;;5047427;28;20262;-67
2022/09/04 06:46:25;;;;;;;2.60;2.40;;;23.00;53.80;;;;;;5056512;28;20186;-67
2022/09/04 06:48:56;;;;;;;2.60;2.40;;;23.00;53.70;;;;;;5055637;28;20186;-67
2022/09/04 06:51:29;;;;;;;2.67;2.47;;;23.00;53.70;;;;;;5055152;28;20171;-67
2022/09/04 06:54:19;;;;;;;3.13;2.83;;;23.00;53.70;;;;;;5055219;28;20194;-66
2022/09/04 06:56:57;;;;;;;2.55;2.35;;;23.00;53.70;;;;;;5072759;28;20538;-67
2022/09/04 06:59:34;;;;;;;2.63;2.42;;;23.00;53.70;;;;;;5072501;28;20181;-67
2022/09/04 07:02:06;;;;;;;2.80;2.60;;;23.00;53.70;;;;;;5054943;28;20582;-66
2022/09/04 07:04:34;;;;;;;2.75;2.55;;;23.00;53.70;;;;;;5055115;28;20273;-66
2022/09/04 07:07:03;;;;;;;2.47;2.22;;;23.00;53.70;;;;;;5072639;28;20177;-66
2022/09/04 07:09:39;;;;;;;2.67;2.47;;;23.10;53.80;;;;;;5054869;28;20178;-66
2022/09/04 07:12:23;;;;;;;2.47;2.28;;;23.10;53.80;;;;;;5054135;28;20640;-67
2022/09/04 07:15:14;;;;;;;2.70;2.50;;;23.10;53.80;;;;;;5054881;28;20206;-67
2022/09/04 07:17:55;;;;;;;2.60;2.40;;;23.10;53.80;;;;;;5054907;28;20184;-67
2022/09/04 07:20:33;;;;;;;2.60;2.40;;;23.10;53.80;;;;;;5054451;28;20178;-67
2022/09/04 07:23:14;;;;;;;2.42;2.33;;;23.10;53.80;;;;;;5055027;28;20210;-67
2022/09/04 07:25:45;;;;;;;3.63;2.55;;;23.10;53.80;;;;;;5054280;28;20256;-67
2022/09/04 07:28:23;;;;;;;2.47;2.35;;;23.10;53.80;;;;;;5054858;28;20257;-67
2022/09/04 07:30:55;;;;;;;3.03;2.33;;;23.10;53.80;;;;;;5055427;28;20202;-66
2022/09/04 07:33:55;;;;;;;2.55;2.35;;;23.20;53.80;;;;;;5053971;28;20232;-67
2022/09/04 07:36:35;;;;;;;2.50;2.30;;;23.20;53.80;;;;;;5072445;28;20189;-67
2022/09/04 07:39:10;;;;;;;2.80;2.60;;;23.20;53.80;;;;;;5056497;28;20170;-67
2022/09/04 07:42:09;;;;;;;2.47;2.30;;;23.20;53.80;;;;;;5054019;28;20576;-66
2022/09/04 07:44:53;;;;;;;2.42;2.22;;;23.20;53.80;;;;;;5043685;28;20197;-67
2022/09/04 07:47:29;;;;;;;2.88;2.67;;;23.30;53.80;;;;;;5058400;28;20174;-67
2022/09/04 07:49:57;;;;;;;3.38;3.17;;;23.30;53.90;;;;;;5059444;28;20177;-66
2022/09/04 07:52:49;;;;;;;2.63;2.42;;;23.30;53.80;;;;;;5058371;28;20198;-67
2022/09/04 07:55:40;;;;;;;3.15;2.90;;;23.30;53.80;;;;;;5075839;28;20170;-67
2022/09/04 07:58:27;;;;;;;3.05;2.85;;;23.30;53.80;;;;;;5076441;28;20253;-67
2022/09/04 08:01:10;;;;;;;2.67;2.47;;;23.40;53.90;;;;;;5075662;28;20256;-67
2022/09/04 08:04:15;;;;;;;2.42;2.22;;;23.40;53.80;;;;;;5076124;28;20210;-66
2022/09/04 08:06:47;;;;;;;2.67;2.47;;;23.40;53.90;;;;;;5058308;28;20182;-66
2022/09/04 08:09:32;;;;;;;2.65;2.45;;;23.40;53.90;;;;;;5075448;28;20182;-66
2022/09/04 08:12:13;;;;;;;2.63;2.42;;;23.40;54.00;;;;;;5075988;28;20180;-66
2022/09/04 08:14:55;;;;;;;2.90;2.60;;;23.40;53.90;;;;;;5058077;28;20193;-66
2022/09/04 08:17:32;;;;;;;2.80;2.60;;;23.40;53.90;;;;;;5076258;28;20192;-67
2022/09/04 08:20:29;;;;;;;2.90;2.70;;;23.50;53.80;;;;;;5058172;28;20171;-67
2022/09/04 08:23:03;;;;;;;2.38;2.28;;;23.50;53.80;;;;;;5020490;28;20220;-66
2022/09/04 08:25:48;;;;;;;2.72;2.53;;;23.50;53.80;;;;;;5075734;28;20230;-66
2022/09/04 08:28:34;;;;;;;2.15;2.05;;;23.50;54.20;;;;;;5075865;28;20182;-67
2022/09/04 08:31:13;;;;;;;2.58;2.38;;;23.50;53.80;;;;;;5074665;28;20708;-66
2022/09/04 08:34:16;;;;;;;2.30;2.20;;;23.50;53.80;;;;;;5057981;28;20174;-66
2022/09/04 08:36:50;;;;;;;2.50;2.30;;;23.60;53.90;;;;;;5074953;28;20194;-67
2022/09/04 08:39:28;;;;;;;2.70;2.22;;;23.60;53.80;;;;;;5075691;28;20762;-66
2022/09/04 08:42:24;;;;;;;2.72;2.50;;;23.60;53.80;;;;;;5057734;28;20280;-66
2022/09/04 08:45:24;;;;;;;2.97;2.58;;;23.60;53.80;;;;;;5074502;28;20224;-67
2022/09/04 08:47:53;;;;;;;5.32;2.42;;;23.70;53.90;;;;;;5060138;28;20174;-66
2022/09/04 08:50:43;;;;;;;4.82;3.03;;;23.70;53.90;;;;;;5074723;28;20170;-67
2022/09/04 08:53:36;;;;;;;6.22;3.13;;;23.70;54.30;;;;;;5057359;28;20584;-66
2022/09/04 08:56:29;;;;;;;7.55;3.53;;;23.70;54.40;;;;;;5056851;28;20191;-67
2022/09/04 08:59:23;;;;;;;9.65;3.20;;;23.80;54.70;;;;;;5074304;28;20181;-64
2022/09/04 09:02:04;;;;;;;10.70;3.15;;;23.90;54.80;;;;;;5057158;28;20182;-63
2022/09/04 09:04:35;;;;;;;9.43;3.75;;;23.90;55.30;;;;;;5057277;28;20194;-64
2022/09/04 09:07:21;;;;;;;11.18;3.35;;;24.00;55.50;;;;;;5075202;28;20578;-63
2022/09/04 09:10:02;;;;;;;10.70;3.70;;;24.00;55.80;;;;;;5059346;28;20175;-62
2022/09/04 09:12:58;;;;;;;5.28;3.30;;;24.10;56.00;;;;;;5074354;28;20261;-62
2022/09/04 09:15:53;;;;;;;9.93;3.67;;;24.10;56.00;;;;;;5075148;28;20178;-62
2022/09/04 09:18:40;;;;;;;7.80;3.70;;;24.10;56.10;;;;;;5074390;28;20190;-63
2022/09/04 09:21:39;;;;;;;7.57;3.40;;;24.20;56.20;;;;;;5057120;28;20178;-63
2022/09/04 09:24:26;;;;;;;6.43;3.70;;;24.20;56.10;;;;;;5074122;28;20325;-62
2022/09/04 09:27:33;;;;;;;8.05;3.20;;;24.20;56.30;;;;;;5073691;28;20709;-63
2022/09/04 09:30:06;;;;;;;8.27;2.95;;;24.30;56.40;;;;;;5036598;28;20186;-63
2022/09/04 09:33:12;;;;;;;7.18;3.13;;;24.30;56.70;;;;;;5074078;28;20538;-62
2022/09/04 09:36:00;;;;;;;8.93;3.72;;;24.30;56.50;;;;;;5057003;28;20506;-63
2022/09/04 09:38:31;;;;;;;7.72;3.55;;;24.30;56.70;;;;;;5074779;28;20186;-63
2022/09/04 09:41:18;;;;;;;7.43;3.67;;;24.40;56.80;;;;;;5073726;28;20174;-63
2022/09/04 09:44:09;;;;;;;6.22;3.42;;;24.30;56.70;;;;;;5074037;28;20260;-63
2022/09/04 09:47:08;;;;;;;6.07;3.20;;;24.40;56.80;;;;;;5058740;28;20253;-63
2022/09/04 09:50:15;;;;;;;6.65;3.58;;;24.40;56.70;;;;;;5059636;28;20182;-61
2022/09/04 09:53:17;;;;;;;6.97;3.20;;;24.40;56.50;;;;;;5012282;28;20187;-63
2022/09/04 09:55:59;;;;;;;6.40;3.33;;;24.40;56.30;;;;;;5058849;28;20217;-64
2022/09/04 09:59:02;;;;;;;7.53;3.33;;;24.50;56.30;;;;;;5047012;28;20163;-64
2022/09/04 10:01:32;;;;;;;8.98;3.83;;;24.50;56.20;;;;;;5053341;28;20228;-64
2022/09/04 10:04:10;;;;;;;8.55;3.80;;;24.50;56.20;;;;;;5049518;28;20271;-64
2022/09/04 10:07:18;;;;;;;7.53;3.75;;;24.50;56.10;;;;;;5048471;28;20652;-61
2022/09/04 10:10:02;;;;;;;9.10;3.90;;;24.60;56.20;;;;;;5035604;28;20171;-63
2022/09/04 10:12:33;;;;;;;9.18;3.88;;;24.60;56.20;;;;;;5053809;28;20186;-64
2022/09/04 10:15:21;;;;;;;8.27;3.40;;;24.60;56.20;;;;;;5052614;28;20262;-64
2022/09/04 10:18:25;;;;;;;8.82;3.53;;;24.60;56.10;;;;;;5036054;28;20258;-64
2022/09/04 10:21:09;;;;;;;7.82;3.90;;;24.70;56.00;;;;;;5038605;28;20185;-65
2022/09/04 10:23:51;;;;;;;7.53;3.65;;;24.60;55.90;;;;;;5037278;28;20226;-64
2022/09/04 10:26:34;;;;;;;6.43;3.00;;;24.70;55.80;;;;;;5036815;28;20191;-64
2022/09/04 10:29:31;;;;;;;6.25;3.70;;;24.70;55.80;;;;;;5035168;28;20174;-63
2022/09/04 10:32:09;;;;;;;5.43;3.03;;;24.70;55.70;;;;;;5034815;28;20178;-63
2022/09/04 10:34:45;;;;;;;6.22;3.30;;;24.70;55.70;;;;;;5053255;28;20252;-63
2022/09/04 10:37:37;;;;;;;5.90;3.53;;;24.70;55.70;;;;;;5052555;28;20659;-64
2022/09/04 10:43:17;;;;;;;7.15;3.20;;;24.80;55.60;;;;;;5052437;28;20225;-64
2022/09/04 10:45:43;;;;;;;5.95;3.00;;;24.80;55.50;;;;;;5053190;28;20293;-63
2022/09/04 10:48:36;;;;;;;4.47;3.30;;;24.60;55.50;;;;;;5053218;28;20213;-63
2022/09/04 10:51:35;;;;;;;5.43;3.50;;;24.70;55.50;;;;;;5035555;28;20187;-63
2022/09/04 10:54:24;;;;;;;5.57;3.50;;;24.70;55.50;;;;;;5053071;28;20183;-64
2022/09/04 10:56:58;;;;;;;5.72;2.95;;;24.80;55.50;;;;;;5052370;28;20202;-64
2022/09/04 10:59:50;;;;;;;4.32;3.20;;;24.80;55.30;;;;;;5035467;28;20270;-64
2022/09/04 11:02:31;;;;;;;6.10;3.22;;;24.80;55.30;;;;;;5035332;28;20178;-64
2022/09/04 11:05:18;;;;;;;4.60;2.53;;;24.80;55.20;;;;;;5034330;28;20179;-64
2022/09/04 11:08:12;;;;;;;4.68;3.03;;;24.80;55.20;;;;;;5035281;28;20179;-64
2022/09/04 11:11:13;;;;;;;3.55;2.80;;;24.80;55.20;;;;;;5052196;28;20179;-64
2022/09/04 11:14:02;;;;;;;3.67;3.30;;;24.70;55.30;;;;;;5049636;28;20652;-64
2022/09/04 11:16:46;;;;;;;4.00;2.88;;;24.60;55.40;;;;;;5052671;28;20565;-64
2022/09/04 11:19:35;;;;;;;2.92;2.72;;;24.60;55.50;;;;;;5051205;28;20171;-64
2022/09/04 11:22:33;;;;;;;3.55;2.90;;;24.60;55.60;;;;;;5036572;28;20171;-65
2022/09/04 11:25:20;;;;;;;3.95;2.97;;;24.60;55.50;;;;;;5051904;28;20231;-64
2022/09/04 11:28:03;;;;;;;4.57;2.75;;;24.60;55.50;;;;;;5052338;28;20257;-64
2022/09/04 11:30:37;;;;;;;3.30;3.00;;;24.70;55.40;;;;;;5036418;28;20278;-64
2022/09/04 11:33:35;;;;;;;4.32;3.00;;;24.70;55.30;;;;;;5034831;28;21087;-63
2022/09/04 11:36:25;;;;;;;4.25;2.70;;;24.70;55.20;;;;;;5052378;28;20179;-64
2022/09/04 11:39:18;;;;;;;3.80;2.53;;;24.70;55.10;;;;;;5051697;28;20380;-64
2022/09/04 11:42:04;;;;;;;5.78;2.95;;;24.80;55.10;;;;;;5052229;28;20171;-64
2022/09/04 11:44:30;;;;;;;3.15;2.85;;;24.80;55.10;;;;;;5037183;28;20198;-63
2022/09/04 11:47:27;;;;;;;3.00;2.67;;;24.80;55.20;;;;;;5051504;28;20177;-63
2022/09/04 11:50:37;;;;;;;3.25;2.55;;;24.80;55.00;;;;;;5052102;28;20582;-63
2022/09/04 11:53:35;;;;;;;2.83;2.53;;;24.80;55.00;;;;;;5033793;28;20183;-63
2022/09/04 11:56:38;;;;;;;3.67;2.97;;;24.70;55.10;;;;;;5052225;28;20179;-63
2022/09/04 11:59:17;;;;;;;3.13;2.90;;;24.70;55.10;;;;;;5052085;28;20205;-63
2022/09/04 12:01:51;;;;;;;5.18;2.95;;;24.70;55.10;;;;;;5034523;28;20593;-64
2022/09/04 12:04:46;;;;;;;2.60;2.40;;;24.80;55.00;;;;;;5052243;28;20688;-64
2022/09/04 12:07:49;;;;;;;3.83;3.00;;;24.70;55.00;;;;;;5051623;28;20175;-64
2022/09/04 12:10:18;;;;;;;3.10;2.63;;;24.70;54.90;;;;;;5034772;28;20171;-63
2022/09/04 12:13:06;;;;;;;2.55;2.35;;;24.70;54.80;;;;;;5051854;28;20173;-64
2022/09/04 12:15:45;;;;;;;2.70;2.50;;;24.80;54.90;;;;;;5033616;28;20266;-64
2022/09/04 12:18:35;;;;;;;3.15;2.85;;;24.80;54.70;;;;;;5034395;28;20621;-64
2022/09/04 12:21:24;;;;;;;3.47;2.50;;;24.80;54.70;;;;;;5051222;28;20175;-65
2022/09/04 12:24:21;;;;;;;2.67;2.22;;;24.70;54.70;;;;;;5051699;28;20811;-64
2022/09/04 12:27:07;;;;;;;3.20;2.30;;;24.80;54.80;;;;;;5034013;28;20638;-64
2022/09/04 12:30:10;;;;;;;2.42;2.22;;;24.80;54.70;;;;;;5033545;28;20179;-63
2022/09/04 12:32:39;;;;;;;3.13;2.83;;;24.70;54.60;;;;;;5055762;28;20629;-64
2022/09/04 12:35:29;;;;;;;2.45;2.25;;;24.70;54.70;;;;;;5054643;28;20916;-64
2022/09/04 12:38:36;;;;;;;2.75;2.50;;;24.70;54.70;;;;;;5055569;28;20198;-64
2022/09/04 12:41:19;;;;;;;3.05;2.75;;;24.60;54.70;;;;;;5040686;28;20182;-64
2022/09/04 12:44:13;;;;;;;4.00;2.67;;;24.60;54.70;;;;;;5036641;28;20214;-64
2022/09/04 12:46:49;;;;;;;2.33;2.13;;;24.70;54.70;;;;;;5040585;28;20175;-64
2022/09/04 12:49:26;;;;;;;3.67;2.53;;;24.70;54.60;;;;;;5055081;28;20209;-64
2022/09/04 12:52:07;;;;;;;3.30;2.78;;;24.80;54.60;;;;;;5055152;28;20179;-64
2022/09/04 12:54:44;;;;;;;2.63;2.42;;;24.80;54.50;;;;;;5037396;28;20190;-64
2022/09/04 12:57:19;;;;;;;3.70;2.53;;;24.80;54.50;;;;;;5037486;28;20193;-64
2022/09/04 13:00:22;;;;;;;2.88;2.67;;;24.80;54.40;;;;;;5037186;28;20210;-64
2022/09/04 13:03:06;;;;;;;2.60;2.40;;;24.70;54.50;;;;;;4993328;28;20300;-64
2022/09/04 13:05:48;;;;;;;3.30;2.40;;;24.80;54.60;;;;;;5050659;28;20225;-64
2022/09/04 13:08:32;;;;;;;3.38;2.70;;;24.60;54.60;;;;;;5037706;28;20207;-64
2022/09/04 13:11:12;;;;;;;2.60;2.40;;;24.70;54.60;;;;;;5054138;28;20179;-64
2022/09/04 13:13:46;;;;;;;2.40;2.20;;;24.70;54.60;;;;;;5037390;28;20206;-63
2022/09/04 13:16:25;;;;;;;2.67;2.47;;;24.60;54.60;;;;;;5054836;28;20175;-65
2022/09/04 13:19:16;;;;;;;2.53;2.33;;;24.60;54.60;;;;;;5036606;28;20563;-64
2022/09/04 13:22:05;;;;;;;2.78;2.58;;;24.60;54.70;;;;;;5054868;28;20740;-65
2022/09/04 13:24:58;;;;;;;2.70;2.50;;;24.60;54.70;;;;;;5053904;28;20280;-64
2022/09/04 13:27:57;;;;;;;2.40;2.30;;;24.60;54.70;;;;;;5054870;28;20174;-64
2022/09/04 13:30:24;;;;;;;2.75;2.55;;;24.60;54.70;;;;;;5039635;28;20260;-64
2022/09/04 13:33:20;;;;;;;2.55;2.35;;;24.50;54.70;;;;;;5035834;28;20263;-64
2022/09/04 13:36:01;;;;;;;2.72;2.38;;;24.50;55.30;;;;;;5051870;28;20184;-64
2022/09/04 13:38:38;;;;;;;2.60;2.40;;;24.60;54.70;;;;;;5037003;28;20261;-64
2022/09/04 13:41:38;;;;;;;2.65;2.40;;;24.60;54.70;;;;;;5036592;28;20175;-64
2022/09/04 13:44:18;;;;;;;2.70;2.50;;;24.70;54.50;;;;;;5053809;28;20617;-64
2022/09/04 13:46:48;;;;;;;2.92;2.63;;;24.60;54.60;;;;;;5053525;28;20163;-64
2022/09/04 13:49:24;;;;;;;3.28;2.13;;;24.60;54.50;;;;;;5054389;28;20186;-64
2022/09/04 13:52:00;;;;;;;2.65;2.40;;;24.60;55.10;;;;;;5054134;28;20658;-64
2022/09/04 13:54:32;;;;;;;2.30;2.20;;;24.60;54.50;;;;;;5041526;28;20178;-63
2022/09/04 13:57:00;;;;;;;3.20;2.90;;;24.60;54.50;;;;;;5064101;28;20183;-63
2022/09/04 13:59:27;;;;;;;2.83;2.40;;;24.60;54.50;;;;;;5052355;28;20194;-64
2022/09/04 14:01:54;;;;;;;3.00;2.63;;;24.60;54.50;;;;;;5035947;28;20634;-64
2022/09/04 14:04:25;;;;;;;2.38;2.17;;;24.60;54.50;;;;;;5036395;28;20223;-64
2022/09/04 14:06:54;;;;;;;3.05;2.30;;;24.70;54.30;;;;;;5035461;28;20524;-64
2022/09/04 14:09:20;;;;;;;2.63;2.42;;;24.80;54.30;;;;;;5036697;28;20179;-64
2022/09/04 14:12:06;;;;;;;2.70;2.50;;;24.80;54.30;;;;;;5053747;28;20630;-64
2022/09/04 14:15:06;;;;;;;2.80;2.60;;;24.80;54.10;;;;;;5040627;28;20667;-64
2022/09/04 14:17:37;;;;;;;3.30;3.00;;;24.80;54.20;;;;;;5040792;28;20197;-64
2022/09/04 14:20:16;;;;;;;3.53;2.55;;;24.80;54.20;;;;;;5055850;28;20262;-65